Time;durP1;ratioP1;P1;durP2;ratioP2;P2;SDS_P1;SDS_P2;PMS_P1;PMS_P2;Temp;Humidity;BMP_temperature;BMP_pressure;BME280_temperature;BME280_humidity;BME280_pressure;Samples;Min_cycle;Max_cycle;Signal;HPM_P1;HPM_P2
2024/03/17 00:00:23;;;;;;;16.15;10.63;;;;;;;11.89;74.58;100231.81;5096520;28;20099;-63
2024/03/17 00:02:49;;;;;;;15.10;9.75;;;;;;;11.86;74.88;100228.66;5095987;28;20319;-65
2024/03/17 00:05:15;;;;;;;15.23;10.13;;;;;;;11.86;75.91;100237.44;5096230;28;20032;-63
2024/03/17 00:07:41;;;;;;;16.75;10.20;;;;;;;11.87;75.65;100223.19;5096325;28;20035;-65
2024/03/17 00:10:07;;;;;;;19.50;10.77;;;;;;;11.88;75.67;100229.31;5096424;28;20365;-64
2024/03/17 00:12:33;;;;;;;18.73;10.77;;;;;;;11.88;74.79;100224.84;5096777;28;20117;-63
2024/03/17 00:14:59;;;;;;;17.80;10.32;;;;;;;11.93;75.17;100232.31;5096512;28;20038;-66
2024/03/17 00:17:24;;;;;;;15.90;10.20;;;;;;;11.91;74.50;100226.34;5096864;28;20095;-65
2024/03/17 00:19:50;;;;;;;16.52;10.27;;;;;;;11.90;74.91;100214.91;5100045;28;20046;-63
2024/03/17 00:22:16;;;;;;;17.58;10.65;;;;;;;11.90;75.08;100222.88;5100323;28;20024;-63
2024/03/17 00:24:43;;;;;;;16.80;10.20;;;;;;;11.91;75.56;100218.38;5100083;28;20032;-63
2024/03/17 00:27:11;;;;;;;15.10;10.50;;;;;;;11.93;75.30;100225.19;5100457;28;20032;-63
2024/03/17 00:29:36;;;;;;;17.85;11.30;;;;;;;11.88;74.78;100222.19;5099871;28;20072;-64
2024/03/17 00:32:02;;;;;;;17.20;10.32;;;;;;;11.87;75.78;100225.84;5099617;28;20044;-65
2024/03/17 00:34:28;;;;;;;17.50;10.50;;;;;;;11.90;75.67;100222.88;5099361;28;20048;-63
2024/03/17 00:36:53;;;;;;;15.18;10.10;;;;;;;11.91;75.50;100224.53;5099787;28;20248;-63
2024/03/17 00:39:19;;;;;;;18.50;11.00;;;;;;;11.91;74.96;100219.22;5099572;28;20107;-63
2024/03/17 00:41:45;;;;;;;16.23;10.60;;;;;;;11.90;75.01;100216.72;5099536;28;20081;-63
2024/03/17 00:44:10;;;;;;;14.88;9.85;;;;;;;11.81;75.41;100211.38;5099936;28;20039;-65
2024/03/17 00:46:36;;;;;;;18.02;10.73;;;;;;;11.74;75.79;100212.13;5099558;28;20090;-65
2024/03/17 00:49:01;;;;;;;16.30;10.57;;;;;;;11.69;76.03;100201.16;5099241;28;20035;-63
2024/03/17 00:51:27;;;;;;;15.75;10.35;;;;;;;11.60;75.72;100202.94;5099423;28;20030;-64
2024/03/17 00:53:52;;;;;;;15.88;10.13;;;;;;;11.66;75.99;100214.75;5099240;28;20070;-63
2024/03/17 00:56:18;;;;;;;17.55;10.18;;;;;;;11.50;77.00;100215.47;5099532;28;20457;-63
2024/03/17 00:58:45;;;;;;;16.25;10.38;;;;;;;11.49;76.48;100219.13;5099204;28;20051;-65
2024/03/17 01:01:11;;;;;;;16.23;10.25;;;;;;;11.48;77.14;100218.28;5099485;28;20366;-65
2024/03/17 01:03:37;;;;;;;17.55;10.65;;;;;;;11.49;76.41;100217.31;5098087;28;20047;-63
2024/03/17 01:06:05;;;;;;;17.63;9.95;;;;;;;11.44;76.80;100216.94;5099423;28;20031;-63
2024/03/17 01:08:31;;;;;;;17.08;10.63;;;;;;;11.38;76.43;100217.53;5098704;28;20318;-63
2024/03/17 01:10:58;;;;;;;16.60;10.05;;;;;;;11.27;76.17;100209.00;5099363;28;20043;-63
2024/03/17 01:13:24;;;;;;;18.15;10.57;;;;;;;11.31;76.26;100211.19;5098646;28;20051;-63
2024/03/17 01:15:53;;;;;;;14.55;9.85;;;;;;;11.32;75.82;100214.69;5099155;28;20365;-65
2024/03/17 01:18:18;;;;;;;14.75;10.70;;;;;;;11.27;76.24;100220.44;5098291;28;20055;-63
2024/03/17 01:20:44;;;;;;;16.60;9.98;;;;;;;11.17;76.41;100220.53;5098585;28;20047;-63
2024/03/17 01:23:10;;;;;;;14.55;10.18;;;;;;;11.09;76.51;100219.63;5099112;28;20036;-63
2024/03/17 01:25:37;;;;;;;14.23;9.90;;;;;;;11.01;78.14;100219.56;5099201;28;20210;-63
2024/03/17 01:28:06;;;;;;;17.00;10.93;;;;;;;11.00;77.25;100212.63;5097645;28;20054;-65
2024/03/17 01:30:32;;;;;;;15.95;10.35;;;;;;;11.05;77.79;100215.63;5097778;28;20035;-65
2024/03/17 01:32:59;;;;;;;15.52;10.40;;;;;;;11.05;77.57;100205.88;5098926;28;20035;-62
2024/03/17 01:35:25;;;;;;;17.75;11.50;;;;;;;11.01;77.45;100211.63;5098385;28;20036;-63
2024/03/17 01:37:51;;;;;;;17.60;10.70;;;;;;;10.95;78.14;100206.94;5098487;28;20063;-62
2024/03/17 01:40:16;;;;;;;16.73;10.13;;;;;;;10.98;78.18;100201.34;5098288;28;20691;-63
2024/03/17 01:42:42;;;;;;;16.42;10.75;;;;;;;10.97;78.04;100197.03;5098447;28;20036;-63
2024/03/17 01:45:31;;;;;;;18.60;11.50;;;;;;;10.88;78.61;100199.59;5098251;28;20326;-64
2024/03/17 01:48:02;;;;;;;19.55;11.27;;;;;;;10.96;78.95;100203.31;5098170;28;20357;-64
2024/03/17 01:50:36;;;;;;;15.52;10.85;;;;;;;11.02;78.85;100200.03;5098143;28;20039;-63
2024/03/17 01:53:10;;;;;;;21.52;10.77;;;;;;;11.01;78.18;100206.34;5098074;28;20402;-63
2024/03/17 01:55:38;;;;;;;16.95;11.88;;;;;;;10.88;79.09;100212.03;5097550;28;20031;-65
2024/03/17 01:58:09;;;;;;;16.77;11.10;;;;;;;10.81;79.06;100211.78;5097735;28;20058;-65
2024/03/17 02:00:36;;;;;;;18.08;10.45;;;;;;;10.74;80.02;100213.38;5098334;28;20103;-62
2024/03/17 02:03:04;;;;;;;18.35;11.32;;;;;;;10.78;79.92;100216.56;5098549;28;20082;-63
2024/03/17 02:05:29;;;;;;;21.42;13.63;;;;;;;10.83;79.74;100212.47;5098112;28;20135;-63
2024/03/17 02:07:54;;;;;;;23.30;12.60;;;;;;;10.88;80.22;100204.06;5097728;28;20048;-62
2024/03/17 02:10:21;;;;;;;18.27;11.73;;;;;;;10.90;81.04;100209.22;5097744;28;20163;-63
2024/03/17 02:12:47;;;;;;;18.98;12.60;;;;;;;10.95;80.44;100210.41;5098370;28;20036;-62
2024/03/17 02:15:14;;;;;;;16.77;10.75;;;;;;;11.03;80.46;100215.78;5098364;28;20051;-65
2024/03/17 02:17:39;;;;;;;20.25;11.35;;;;;;;11.08;78.02;100210.03;5098215;28;20119;-64
2024/03/17 02:20:11;;;;;;;16.42;10.43;;;;;;;11.09;77.84;100209.03;5097966;28;20645;-63
2024/03/17 02:22:37;;;;;;;19.38;11.20;;;;;;;11.13;78.85;100213.88;5098388;28;20051;-62
2024/03/17 02:25:03;;;;;;;16.27;10.85;;;;;;;11.17;77.80;100209.09;5097593;28;20023;-63
2024/03/17 02:27:28;;;;;;;19.83;11.27;;;;;;;11.17;78.68;100212.59;5097227;28;20373;-64
2024/03/17 02:29:55;;;;;;;17.83;11.18;;;;;;;11.17;77.52;100211.75;5097973;28;20028;-63
2024/03/17 02:32:22;;;;;;;17.08;11.25;;;;;;;11.12;76.73;100206.09;5097925;28;20073;-63
2024/03/17 02:34:48;;;;;;;17.90;11.25;;;;;;;11.05;77.61;100205.88;5097925;28;20140;-63
2024/03/17 02:37:14;;;;;;;13.70;9.85;;;;;;;10.88;77.92;100206.72;5097807;28;20061;-63
2024/03/17 02:39:40;;;;;;;18.65;10.75;;;;;;;10.48;80.55;100204.53;5097503;28;20046;-63
2024/03/17 02:42:07;;;;;;;21.90;11.98;;;;;;;10.10;84.13;100202.91;5097526;28;20036;-64
2024/03/17 02:44:34;;;;;;;25.52;12.90;;;;;;;9.96;86.84;100198.09;5096754;28;20351;-62
2024/03/17 02:47:00;;;;;;;19.73;11.98;;;;;;;10.03;86.99;100199.19;5096688;28;20035;-66
2024/03/17 02:49:27;;;;;;;19.55;11.73;;;;;;;10.28;85.05;100203.78;5096249;28;20294;-65
2024/03/17 02:51:55;;;;;;;17.70;11.02;;;;;;;10.42;84.05;100203.31;5096967;28;20031;-62
2024/03/17 02:54:22;;;;;;;22.67;10.88;;;;;;;10.51;83.95;100202.41;5097208;28;20162;-65
2024/03/17 02:56:51;;;;;;;20.63;11.05;;;;;;;10.63;83.48;100204.84;5097407;28;20043;-66
2024/03/17 02:59:16;;;;;;;20.30;12.45;;;;;;;10.70;82.85;100209.38;5097156;28;20048;-65
2024/03/17 03:01:42;;;;;;;18.80;12.13;;;;;;;10.79;83.09;100211.13;5096999;28;20035;-62
2024/03/17 03:04:08;;;;;;;18.17;11.88;;;;;;;10.87;82.42;100210.34;5096892;28;20628;-62
2024/03/17 03:06:34;;;;;;;21.55;12.20;;;;;;;10.94;82.45;100206.09;5097161;28;20104;-62
2024/03/17 03:08:59;;;;;;;21.83;13.23;;;;;;;11.01;81.90;100216.94;5097289;28;20055;-62
2024/03/17 03:11:25;;;;;;;22.13;11.65;;;;;;;10.97;80.73;100215.56;5097083;28;20032;-65
2024/03/17 03:13:51;;;;;;;25.20;12.95;;;;;;;10.89;80.75;100216.34;5097213;28;20039;-64
2024/03/17 03:16:18;;;;;;;20.92;12.25;;;;;;;10.77;81.50;100201.66;5096873;28;20035;-66
2024/03/17 03:18:44;;;;;;;20.10;12.07;;;;;;;10.87;82.05;100218.31;5096613;28;20044;-64
2024/03/17 03:21:12;;;;;;;22.00;12.43;;;;;;;10.91;81.57;100208.22;5096834;28;20090;-63
2024/03/17 03:23:37;;;;;;;24.67;13.05;;;;;;;10.99;81.16;100225.03;5097067;28;20129;-62
2024/03/17 03:26:04;;;;;;;17.70;11.32;;;;;;;11.03;80.37;100215.78;5096526;28;20028;-62
2024/03/17 03:28:33;;;;;;;18.67;10.80;;;;;;;10.98;78.55;100215.41;5096878;28;20376;-64
2024/03/17 03:30:59;;;;;;;21.33;11.80;;;;;;;10.93;79.63;100220.34;5096720;28;20024;-65
2024/03/17 03:33:24;;;;;;;24.63;12.57;;;;;;;10.81;81.89;100217.09;5096820;28;20058;-65
2024/03/17 03:35:50;;;;;;;19.42;11.85;;;;;;;10.79;80.79;100213.75;5096649;28;20063;-64
2024/03/17 03:38:16;;;;;;;22.25;13.23;;;;;;;10.85;79.89;100221.09;5096977;28;20040;-64
2024/03/17 03:40:42;;;;;;;18.58;10.93;;;;;;;10.79;80.12;100227.00;5096621;28;20141;-64
2024/03/17 03:43:09;;;;;;;24.52;12.80;;;;;;;10.64;80.35;100225.03;5097007;28;20036;-63
2024/03/17 03:45:35;;;;;;;18.00;10.75;;;;;;;10.62;80.15;100222.53;5096724;28;20039;-66
2024/03/17 03:48:02;;;;;;;19.75;12.13;;;;;;;10.42;80.66;100229.78;5096771;28;20040;-65
2024/03/17 03:50:28;;;;;;;22.83;12.20;;;;;;;10.23;82.80;100233.34;5097110;28;20047;-64
2024/03/17 03:52:54;;;;;;;21.50;13.10;;;;;;;10.23;83.74;100232.53;5097888;28;20036;-64
2024/03/17 03:55:20;;;;;;;22.77;13.38;;;;;;;10.24;83.26;100232.38;5100639;28;20036;-66
2024/03/17 03:57:47;;;;;;;22.90;13.02;;;;;;;10.12;83.51;100228.22;5100781;28;20230;-68
2024/03/17 04:00:18;;;;;;;21.25;12.63;;;;;;;10.03;84.44;100236.22;5100862;28;20355;-65
2024/03/17 04:02:44;;;;;;;20.15;11.85;;;;;;;10.10;84.15;100235.47;5100823;28;20047;-64
2024/03/17 04:05:10;;;;;;;28.25;13.13;;;;;;;9.92;84.55;100224.84;5100917;28;20209;-63
2024/03/17 04:07:36;;;;;;;23.50;12.70;;;;;;;9.93;84.49;100230.97;5100226;28;20189;-62
2024/03/17 04:10:03;;;;;;;27.08;14.30;;;;;;;9.91;85.56;100232.94;5100363;28;20031;-62
2024/03/17 04:12:30;;;;;;;25.15;13.73;;;;;;;9.93;86.44;100237.09;5100099;28;20063;-66
2024/03/17 04:14:57;;;;;;;24.63;12.77;;;;;;;10.00;86.11;100242.63;5100109;28;20221;-66
2024/03/17 04:17:23;;;;;;;19.30;11.52;;;;;;;9.79;82.58;100234.91;5100285;28;20205;-64
2024/03/17 04:19:49;;;;;;;22.85;12.32;;;;;;;9.87;81.53;100242.97;5100740;28;20085;-64
2024/03/17 04:22:19;;;;;;;26.90;13.60;;;;;;;9.92;83.32;100251.28;5099496;28;20146;-64
2024/03/17 04:24:53;;;;;;;22.42;13.52;;;;;;;9.86;84.41;100238.66;5099501;28;20357;-66
2024/03/17 04:27:21;;;;;;;26.70;13.27;;;;;;;9.90;84.90;100250.59;5099811;28;20104;-66
2024/03/17 04:29:51;;;;;;;22.73;12.10;;;;;;;9.94;84.80;100253.78;5100491;28;20036;-64
2024/03/17 04:32:17;;;;;;;24.10;11.95;;;;;;;9.92;84.22;100253.94;5099991;28;20039;-65
2024/03/17 04:34:43;;;;;;;23.02;13.02;;;;;;;9.93;85.03;100258.25;5100152;28;20242;-64
2024/03/17 04:37:11;;;;;;;21.90;12.75;;;;;;;9.99;85.31;100250.72;5100675;28;20032;-64
2024/03/17 04:39:38;;;;;;;25.10;14.35;;;;;;;10.05;85.74;100261.53;5100403;28;20127;-66
2024/03/17 04:42:06;;;;;;;22.15;12.65;;;;;;;10.09;85.81;100260.28;5100305;28;20253;-66
2024/03/17 04:44:31;;;;;;;21.23;12.30;;;;;;;10.13;85.59;100260.81;5099516;28;20105;-64
2024/03/17 04:46:57;;;;;;;23.48;14.02;;;;;;;10.14;85.60;100260.66;5099938;28;20042;-64
2024/03/17 04:49:22;;;;;;;25.67;12.68;;;;;;;9.98;83.55;100270.22;5099284;28;20299;-64
2024/03/17 04:51:48;;;;;;;23.63;13.02;;;;;;;10.01;82.21;100275.22;5099740;28;20042;-67
2024/03/17 04:54:13;;;;;;;22.92;12.77;;;;;;;10.05;84.43;100279.22;5099669;28;20039;-66
2024/03/17 04:56:39;;;;;;;21.63;12.73;;;;;;;10.02;85.42;100276.88;5099499;28;20036;-64
2024/03/17 04:59:05;;;;;;;22.90;13.18;;;;;;;9.88;84.82;100283.47;5099356;28;20334;-64
2024/03/17 05:01:31;;;;;;;23.25;13.20;;;;;;;9.78;85.40;100280.03;5098927;28;20227;-64
2024/03/17 05:03:56;;;;;;;24.00;12.88;;;;;;;9.65;87.40;100290.91;5099544;28;20051;-64
2024/03/17 05:06:22;;;;;;;25.35;13.60;;;;;;;9.64;89.29;100283.13;5098983;28;20341;-63
2024/03/17 05:08:47;;;;;;;24.20;12.48;;;;;;;9.71;89.60;100287.69;5098745;28;20048;-66
2024/03/17 05:11:15;;;;;;;23.73;12.68;;;;;;;9.77;88.51;100291.59;5097396;28;20040;-66
2024/03/17 05:13:41;;;;;;;22.80;13.25;;;;;;;9.89;89.00;100287.78;5099261;28;20031;-64
2024/03/17 05:16:07;;;;;;;19.58;12.35;;;;;;;10.04;87.59;100296.91;5099281;28;20087;-64
2024/03/17 05:18:35;;;;;;;32.92;18.80;;;;;;;10.13;87.55;100295.22;5098659;28;20372;-64
2024/03/17 05:21:03;;;;;;;25.77;16.88;;;;;;;10.16;87.99;100294.91;5098730;28;20117;-66
2024/03/17 05:23:31;;;;;;;21.92;13.55;;;;;;;10.24;87.86;100298.53;5098751;28;20040;-65
2024/03/17 05:25:57;;;;;;;26.13;14.52;;;;;;;10.32;88.09;100297.81;5098629;28;20046;-64
2024/03/17 05:28:24;;;;;;;28.88;19.90;;;;;;;10.36;86.91;100304.47;5099498;28;20148;-64
2024/03/17 05:30:50;;;;;;;24.75;14.55;;;;;;;10.35;87.16;100297.50;5098668;28;20338;-64
2024/03/17 05:33:21;;;;;;;25.33;13.95;;;;;;;10.39;87.21;100303.34;5098739;28;20093;-65
2024/03/17 05:36:02;;;;;;;23.27;13.05;;;;;;;10.44;87.26;100306.41;5098667;28;20067;-66
2024/03/17 05:38:30;;;;;;;24.02;13.10;;;;;;;10.50;86.92;100304.00;5098257;28;20063;-67
2024/03/17 05:40:56;;;;;;;22.42;12.55;;;;;;;10.61;87.09;100312.72;5098456;28;20032;-64
2024/03/17 05:43:26;;;;;;;23.38;12.98;;;;;;;10.66;86.79;100305.19;5098671;28;20043;-64
2024/03/17 05:45:57;;;;;;;22.70;13.38;;;;;;;10.75;87.41;100304.28;5098852;28;20036;-64
2024/03/17 05:48:24;;;;;;;24.83;14.23;;;;;;;10.75;87.03;100297.16;5097803;28;20067;-66
2024/03/17 05:50:51;;;;;;;27.63;13.95;;;;;;;10.84;87.72;100306.88;5098338;28;20078;-64
2024/03/17 05:53:20;;;;;;;23.13;13.55;;;;;;;10.73;88.22;100304.44;5099092;28;20040;-64
2024/03/17 05:55:47;;;;;;;25.50;13.85;;;;;;;10.73;89.29;100307.06;5098312;28;20073;-64
2024/03/17 05:58:13;;;;;;;29.45;14.48;;;;;;;10.81;88.97;100314.28;5098574;28;20051;-64
2024/03/17 06:00:39;;;;;;;29.23;13.75;;;;;;;10.88;89.44;100310.03;5098401;28;20347;-64
2024/03/17 06:03:06;;;;;;;26.05;15.20;;;;;;;10.82;88.79;100314.13;5096924;28;20225;-64
2024/03/17 06:05:40;;;;;;;27.33;14.50;;;;;;;10.76;89.78;100319.19;5098101;28;20258;-66
2024/03/17 06:08:08;;;;;;;24.98;13.50;;;;;;;10.67;90.68;100315.63;5097859;28;20341;-66
2024/03/17 06:10:35;;;;;;;26.77;14.23;;;;;;;10.58;90.61;100326.28;5097854;28;20035;-64
2024/03/17 06:13:00;;;;;;;29.38;15.65;;;;;;;10.43;91.76;100325.94;5097544;28;20345;-64
2024/03/17 06:15:26;;;;;;;30.15;15.98;;;;;;;10.33;93.00;100325.09;5097599;28;20032;-64
2024/03/17 06:17:53;;;;;;;28.63;14.23;;;;;;;10.34;93.24;100330.25;5098024;28;20347;-66
2024/03/17 06:20:28;;;;;;;29.45;15.45;;;;;;;10.35;94.04;100329.28;5098232;28;20036;-64
2024/03/17 06:22:54;;;;;;;34.13;15.15;;;;;;;10.30;95.40;100328.03;5097711;28;20063;-64
2024/03/17 06:25:23;;;;;;;30.25;14.25;;;;;;;10.26;95.41;100337.25;5097434;28;20024;-64
2024/03/17 06:27:52;;;;;;;27.25;15.02;;;;;;;10.35;95.07;100341.69;5097606;28;20078;-64
2024/03/17 06:30:18;;;;;;;26.60;13.88;;;;;;;10.48;93.97;100334.25;5098299;28;20229;-65
2024/03/17 06:32:47;;;;;;;27.67;12.73;;;;;;;10.55;94.08;100330.03;5118673;28;20039;-63
2024/03/17 06:35:25;;;;;;;23.38;13.63;;;;;;;10.64;93.43;100349.50;5117449;28;20039;-66
2024/03/17 06:37:52;;;;;;;24.65;14.32;;;;;;;10.53;94.49;100343.44;5117624;28;20041;-66
2024/03/17 06:40:18;;;;;;;24.60;13.25;;;;;;;10.23;96.46;100336.56;5117232;28;20061;-64
2024/03/17 06:42:44;;;;;;;28.05;14.90;;;;;;;10.22;98.79;100348.13;5117174;28;20042;-64
2024/03/17 06:45:10;;;;;;;28.15;15.10;;;;;;;10.25;98.43;100347.00;5117599;28;20214;-64
2024/03/17 06:47:37;;;;;;;29.02;15.63;;;;;;;10.53;97.01;100347.91;5117389;28;20068;-66
2024/03/17 06:50:03;;;;;;;26.83;15.57;;;;;;;10.62;96.78;100341.72;5118027;28;20031;-66
2024/03/17 06:52:29;;;;;;;31.65;16.40;;;;;;;10.81;96.32;100343.41;5117304;28;20043;-64
2024/03/17 06:54:55;;;;;;;24.55;14.38;;;;;;;10.82;95.65;100350.38;5117339;28;20032;-64
2024/03/17 06:57:21;;;;;;;30.90;15.38;;;;;;;10.80;95.10;100353.19;5117727;28;20027;-64
2024/03/17 06:59:48;;;;;;;27.88;13.98;;;;;;;10.69;95.41;100353.38;5117269;28;20229;-64
2024/03/17 07:02:17;;;;;;;28.30;15.68;;;;;;;10.83;95.46;100344.94;5117896;28;20229;-64
2024/03/17 07:04:43;;;;;;;25.77;13.70;;;;;;;11.03;95.64;100350.94;5117480;28;20043;-64
2024/03/17 07:07:09;;;;;;;26.75;13.57;;;;;;;11.17;93.66;100353.06;5117849;28;20153;-66
2024/03/17 07:09:34;;;;;;;28.40;13.57;;;;;;;11.20;94.06;100352.75;5117649;28;20291;-66
2024/03/17 07:12:00;;;;;;;23.55;13.48;;;;;;;11.40;92.58;100356.09;5117732;28;20098;-65
2024/03/17 07:14:26;;;;;;;24.55;12.98;;;;;;;11.60;90.25;100348.81;5117750;28;20043;-65
2024/03/17 07:16:52;;;;;;;23.67;13.60;;;;;;;11.63;89.80;100351.19;5117504;28;20023;-65
2024/03/17 07:19:17;;;;;;;25.85;14.75;;;;;;;11.54;90.84;100360.06;5117183;28;20364;-66
2024/03/17 07:21:43;;;;;;;24.33;13.73;;;;;;;11.57;89.29;100359.75;5117592;28;20047;-66
2024/03/17 07:24:08;;;;;;;24.45;13.68;;;;;;;11.48;90.14;100358.84;5117255;28;20035;-64
2024/03/17 07:26:34;;;;;;;23.58;13.20;;;;;;;11.66;88.79;100358.81;5095459;28;20028;-65
2024/03/17 07:29:00;;;;;;;25.08;13.90;;;;;;;11.73;89.37;100361.69;5100425;28;20042;-65
2024/03/17 07:31:25;;;;;;;22.67;12.93;;;;;;;11.58;89.05;100352.63;5100950;28;20095;-64
2024/03/17 07:33:51;;;;;;;23.38;12.70;;;;;;;11.80;87.56;100354.81;5100459;28;20334;-64
2024/03/17 07:36:17;;;;;;;25.55;12.98;;;;;;;12.02;87.58;100356.94;5100695;28;20319;-64
2024/03/17 07:38:42;;;;;;;23.02;13.32;;;;;;;12.02;86.68;100353.47;5100278;28;20044;-67
2024/03/17 07:41:09;;;;;;;26.00;14.18;;;;;;;11.90;88.27;100354.72;5100124;28;20237;-66
2024/03/17 07:43:39;;;;;;;22.77;13.52;;;;;;;11.98;88.17;100362.72;5099695;28;20038;-64
2024/03/17 07:46:13;;;;;;;27.00;14.77;;;;;;;11.90;88.15;100360.03;5099771;28;20349;-64
2024/03/17 07:48:40;;;;;;;27.58;13.95;;;;;;;11.58;88.64;100353.47;5100442;28;20036;-64
2024/03/17 07:51:19;;;;;;;28.60;14.00;;;;;;;11.58;88.83;100352.63;5099776;28;20084;-64
2024/03/17 07:53:50;;;;;;;24.27;14.35;;;;;;;11.81;89.07;100357.31;5099802;28;20273;-64
2024/03/17 07:56:16;;;;;;;28.25;14.10;;;;;;;12.04;89.03;100352.31;5099491;28;20032;-64
2024/03/17 07:58:43;;;;;;;24.60;13.65;;;;;;;12.33;85.64;100361.78;5099570;28;20309;-66
2024/03/17 08:01:10;;;;;;;26.52;14.05;;;;;;;12.47;84.79;100351.38;5099388;28;20035;-64
2024/03/17 08:03:39;;;;;;;26.45;14.00;;;;;;;12.72;82.87;100347.03;5099389;28;20067;-64
2024/03/17 08:06:06;;;;;;;23.98;13.82;;;;;;;12.65;81.97;100346.00;5099899;28;20040;-64
2024/03/17 08:08:33;;;;;;;27.05;14.60;;;;;;;12.27;85.05;100336.69;5099566;28;20051;-64
2024/03/17 08:10:59;;;;;;;25.67;13.77;;;;;;;12.35;85.69;100341.19;5099864;28;20040;-66
2024/03/17 08:13:24;;;;;;;24.83;13.70;;;;;;;12.65;84.60;100343.34;5099949;28;20035;-66
2024/03/17 08:15:57;;;;;;;25.90;14.00;;;;;;;12.85;84.52;100332.44;5100694;28;20020;-64
2024/03/17 08:18:24;;;;;;;27.23;13.90;;;;;;;13.06;83.31;100335.47;5099972;28;20040;-64
2024/03/17 08:20:49;;;;;;;26.70;14.27;;;;;;;12.96;81.86;100332.97;5100233;28;20906;-64
2024/03/17 08:23:15;;;;;;;30.00;15.00;;;;;;;12.89;82.57;100333.78;5100173;28;20040;-67
2024/03/17 08:25:40;;;;;;;31.02;14.93;;;;;;;12.97;81.40;100339.13;5100091;28;20039;-66
2024/03/17 08:28:09;;;;;;;26.48;13.60;;;;;;;13.24;78.73;100338.03;5100338;28;20028;-64
2024/03/17 08:30:34;;;;;;;32.30;17.25;;;;;;;13.45;79.18;100332.22;5100052;28;20032;-64
2024/03/17 08:33:00;;;;;;;26.65;14.38;;;;;;;13.60;78.14;100336.75;5100302;28;20039;-65
2024/03/17 08:35:26;;;;;;;26.80;14.40;;;;;;;13.67;77.27;100332.41;5099709;28;20028;-65
2024/03/17 08:37:54;;;;;;;26.95;14.13;;;;;;;13.74;76.99;100332.56;5100151;28;20039;-65
2024/03/17 08:40:20;;;;;;;33.42;17.67;;;;;;;13.32;80.89;100325.56;5098856;28;20039;-64
2024/03/17 08:42:45;;;;;;;28.75;16.13;;;;;;;13.33;80.49;100332.56;5098981;28;20099;-64
2024/03/17 08:45:12;;;;;;;26.90;14.18;;;;;;;12.84;83.59;100325.47;5097339;28;20032;-66
2024/03/17 08:47:37;;;;;;;24.33;14.80;;;;;;;12.91;84.50;100319.34;5099184;28;20040;-66
2024/03/17 08:50:04;;;;;;;25.48;13.98;;;;;;;13.01;83.53;100322.69;5099851;28;20348;-64
2024/03/17 08:52:33;;;;;;;26.98;14.68;;;;;;;13.14;81.45;100326.69;5099781;28;20020;-64
2024/03/17 08:54:59;;;;;;;28.95;15.40;;;;;;;13.11;80.13;100318.03;5099651;28;20110;-65
2024/03/17 08:57:25;;;;;;;26.00;13.60;;;;;;;13.14;80.60;100310.72;5099604;28;20389;-64
2024/03/17 08:59:53;;;;;;;28.25;15.18;;;;;;;13.20;80.58;100318.09;5099207;28;20044;-65
2024/03/17 09:02:20;;;;;;;26.40;15.27;;;;;;;13.21;79.98;100309.09;5099209;28;20270;-65
2024/03/17 09:04:49;;;;;;;27.98;15.15;;;;;;;13.36;79.22;100313.59;5099434;28;20028;-63
2024/03/17 09:07:15;;;;;;;27.90;16.20;;;;;;;13.48;78.14;100311.44;5099370;28;20322;-64
2024/03/17 09:09:41;;;;;;;62.38;28.02;;;;;;;13.34;78.74;100304.13;5098737;28;20062;-63
2024/03/17 09:12:07;;;;;;;35.25;17.77;;;;;;;13.47;78.58;100311.59;5099094;28;20078;-63
2024/03/17 09:14:33;;;;;;;26.08;15.60;;;;;;;13.47;79.28;100299.13;5099158;28;20072;-64
2024/03/17 09:16:58;;;;;;;27.80;15.60;;;;;;;13.58;80.86;100296.16;5099532;28;20202;-66
2024/03/17 09:19:24;;;;;;;29.00;15.43;;;;;;;13.36;79.92;100294.16;5099090;28;20073;-66
2024/03/17 09:21:49;;;;;;;26.90;16.38;;;;;;;13.26;80.30;100289.00;5099156;28;20039;-64
2024/03/17 09:24:15;;;;;;;29.20;16.63;;;;;;;13.38;79.78;100295.66;5098290;28;20036;-64
2024/03/17 09:26:40;;;;;;;25.58;14.23;;;;;;;13.43;80.20;100285.34;5097971;28;20334;-64
2024/03/17 09:29:06;;;;;;;26.27;14.93;;;;;;;13.73;79.82;100285.66;5098275;28;20296;-64
2024/03/17 09:31:34;;;;;;;29.60;16.08;;;;;;;13.87;77.52;100286.78;5098538;28;20263;-64
2024/03/17 09:33:59;;;;;;;29.23;16.60;;;;;;;13.63;79.18;100282.34;5098904;28;20043;-63
2024/03/17 09:36:25;;;;;;;25.92;15.52;;;;;;;13.78;77.84;100274.50;5098460;28;20077;-62
2024/03/17 09:38:51;;;;;;;30.52;16.13;;;;;;;13.80;77.82;100283.16;5098368;28;20074;-63
2024/03/17 09:41:29;;;;;;;26.17;16.08;;;;;;;14.10;76.15;100274.41;5098520;28;20343;-63
2024/03/17 09:43:55;;;;;;;27.23;15.90;;;;;;;13.97;78.36;100261.66;5097790;28;20087;-65
2024/03/17 09:46:23;;;;;;;29.92;15.70;;;;;;;14.03;78.08;100268.94;5097753;28;20039;-65
2024/03/17 09:48:49;;;;;;;26.63;14.63;;;;;;;13.91;75.84;100266.81;5097801;28;20056;-62
2024/03/17 09:51:20;;;;;;;23.83;14.32;;;;;;;14.06;75.08;100262.44;5095516;28;20028;-63
2024/03/17 09:53:46;;;;;;;28.30;15.43;;;;;;;14.11;74.54;100264.59;5098193;28;20043;-63
2024/03/17 09:56:20;;;;;;;24.77;13.73;;;;;;;14.33;73.11;100258.50;5098123;28;20032;-63
2024/03/17 09:58:49;;;;;;;;;;;;;;;14.47;74.13;100255.13;5098863;28;20276;-63
2024/03/17 10:01:16;;;;;;;24.17;14.02;;;;;;;14.49;71.11;100260.28;5097677;28;20187;-65
2024/03/17 10:03:51;;;;;;;21.20;13.07;;;;;;;14.61;70.32;100257.09;5098208;28;20043;-65
2024/03/17 10:06:29;;;;;;;23.08;12.60;;;;;;;14.72;70.32;100252.34;5097996;28;20077;-63
2024/03/17 10:08:57;;;;;;;22.88;12.63;;;;;;;14.68;71.39;100249.22;5098199;28;20055;-63
2024/03/17 10:11:36;;;;;;;26.08;13.45;;;;;;;14.62;70.04;100245.41;5098472;28;20024;-63
2024/03/17 10:14:04;;;;;;;21.85;12.70;;;;;;;14.80;70.97;100239.81;5097964;28;20040;-64
2024/03/17 10:16:32;;;;;;;18.95;11.05;;;;;;;14.89;70.48;100241.41;5097982;28;20031;-64
2024/03/17 10:19:21;;;;;;;21.75;11.93;;;;;;;14.99;69.37;100244.66;5096433;28;20051;-63
2024/03/17 10:21:50;;;;;;;25.05;14.10;;;;;;;15.05;70.81;100231.63;5097581;28;20442;-65
2024/03/17 10:24:23;;;;;;;27.45;15.18;;;;;;;15.17;68.03;100244.34;5097487;28;20226;-65
2024/03/17 10:26:51;;;;;;;23.80;13.80;;;;;;;15.13;70.34;100232.38;5097384;28;20027;-63
2024/03/17 10:29:25;;;;;;;24.58;13.30;;;;;;;14.83;72.33;100233.28;5097069;28;20040;-63
2024/03/17 10:31:53;;;;;;;21.20;12.02;;;;;;;14.91;70.13;100234.06;5096945;28;20046;-64
2024/03/17 10:34:18;;;;;;;20.42;12.35;;;;;;;14.87;72.19;100224.75;5096533;28;20046;-63
2024/03/17 10:36:47;;;;;;;20.88;12.32;;;;;;;14.91;71.91;100219.91;5096581;28;20032;-63
2024/03/17 10:39:29;;;;;;;20.90;12.25;;;;;;;14.91;72.01;100218.06;5097085;28;20039;-63
2024/03/17 10:41:59;;;;;;;18.15;11.88;;;;;;;14.75;70.07;100214.69;5097487;28;20043;-63
2024/03/17 10:44:26;;;;;;;17.83;10.55;;;;;;;14.91;70.32;100214.56;5096867;28;20043;-63
2024/03/17 10:46:54;;;;;;;18.13;10.30;;;;;;;14.94;70.56;100214.22;5098061;28;20024;-66
2024/03/17 10:49:23;;;;;;;17.73;10.93;;;;;;;15.02;69.15;100200.81;5097459;28;20322;-66
2024/03/17 10:51:56;;;;;;;14.38;9.55;;;;;;;15.08;68.09;100197.41;5097696;28;20221;-63
2024/03/17 10:54:28;;;;;;;16.77;9.25;;;;;;;15.25;67.42;100198.94;5097155;28;20043;-64
2024/03/17 10:57:03;;;;;;;17.05;10.82;;;;;;;15.31;68.40;100192.03;5097730;28;20024;-63
2024/03/17 10:59:40;;;;;;;16.70;9.40;;;;;;;15.22;67.32;100191.28;5097249;28;20043;-64
2024/03/17 11:02:19;;;;;;;17.05;10.80;;;;;;;15.24;68.45;100189.28;5097141;28;20267;-64
2024/03/17 11:04:45;;;;;;;15.85;10.07;;;;;;;15.32;68.67;100180.34;5096864;28;20040;-66
2024/03/17 11:07:17;;;;;;;14.88;9.20;;;;;;;15.36;69.53;100186.16;5096974;28;20040;-65
2024/03/17 11:09:44;;;;;;;16.23;12.15;;;;;;;15.40;67.98;100184.78;5096626;28;20350;-64